Time;durP1;ratioP1;P1;durP2;ratioP2;P2;SDS_P1;SDS_P2;PMS_P1;PMS_P2;Temp;Humidity;BMP_temperature;BMP_pressure;BME280_temperature;BME280_humidity;BME280_pressure;Samples;Min_cycle;Max_cycle;Signal;HPM_P1;HPM_P2
2022/06/30 00:01:57;;;;;;;;;;;;;;;-144.99;67.23;52223.88;5008931;28;19979;-73
2022/06/30 00:04:25;;;;;;;;;;;;;;;-144.99;67.84;52207.59;5020913;28;19978;-73
2022/06/30 00:06:52;;;;;;;;;;;;;;;-144.99;68.38;52209.63;5003948;28;19933;-75
2022/06/30 00:09:19;;;;;;;;;;;;;;;-144.99;68.70;52191.28;5005941;28;20408;-72
2022/06/30 00:11:45;;;;;;;;;;;;;;;-144.99;69.87;52278.91;5000479;28;19926;-74
2022/06/30 00:14:12;;;;;;;;;;;;;;;-144.99;69.85;52227.97;5026185;28;19925;-75
2022/06/30 00:16:38;;;;;;;;;;;;;;;-144.99;70.32;52278.91;5022622;28;19952;-71
2022/06/30 00:19:05;;;;;;;;;;;;;;;-144.99;70.39;52191.28;5018858;28;19930;-74
2022/06/30 00:21:33;;;;;;;;;;;;;;;-144.99;70.31;52185.16;5014010;28;19914;-73
2022/06/30 00:23:59;;;;;;;;;;;;;;;-144.99;70.85;52187.19;5022301;28;19933;-73
2022/06/30 00:26:26;;;;;;;;;;;;;;;-144.99;71.24;52215.75;5024606;28;19940;-72
2022/06/30 00:28:53;;;;;;;;;;;;;;;-144.99;71.32;52232.03;5025181;28;20419;-73
2022/06/30 00:31:19;;;;;;;;;;;;;;;-144.99;71.60;52211.66;5024503;28;19926;-73
2022/06/30 00:33:45;;;;;;;;;;;;;;;-144.99;71.85;52230.00;5028858;28;19990;-72
2022/06/30 00:36:12;;;;;;;;;;;;;;;-144.99;72.03;52260.56;5035412;28;19948;-73
2022/06/30 00:38:40;;;;;;;;;;;;;;;-144.99;72.22;52232.03;5024007;28;19933;-74
2022/06/30 00:41:07;;;;;;;;;;;;;;;-144.99;72.18;52244.28;5020013;28;19934;-76
2022/06/30 00:43:41;;;;;;;;;;;;;;;-144.99;72.39;52191.28;5017112;28;19940;-74
2022/06/30 00:46:08;;;;;;;;;;;;;;;-144.99;72.65;52211.66;5016426;28;19947;-75
2022/06/30 00:48:35;;;;;;;;;;;;;;;-144.99;73.04;52199.44;5018931;28;19926;-73
2022/06/30 00:51:03;;;;;;;;;;;;;;;-144.99;73.08;52195.34;5023297;28;19913;-74
2022/06/30 00:53:30;;;;;;;;;;;;;;;-144.99;73.38;52240.19;5013668;28;20462;-74
2022/06/30 00:55:59;;;;;;;;;;;;;;;-144.99;73.64;52211.66;5015086;28;20416;-76
2022/06/30 00:58:26;;;;;;;;;;;;;;;-144.99;73.86;52209.63;5010232;28;19926;-74
2022/06/30 01:00:53;;;;;;;;;;;;;;;-144.99;74.14;52244.28;5016697;28;19929;-75
2022/06/30 01:03:20;;;;;;;;;;;;;;;-144.99;74.32;52252.44;5015111;28;19936;-72
2022/06/30 01:05:47;;;;;;;;;;;;;;;-144.99;74.48;52203.50;5015788;28;19937;-73
2022/06/30 01:08:16;;;;;;;;;;;;;;;-144.99;74.78;52203.50;5029119;28;19913;-73
2022/06/30 01:13:29;;;;;;;;;;;;;;;-144.99;75.10;52227.97;5026910;28;19937;-74
2022/06/30 01:15:55;;;;;;;;;;;;;;;-144.99;75.62;52240.19;5026750;28;19913;-73
2022/06/30 01:18:22;;;;;;;;;;;;;;;-144.99;75.90;52246.31;5022952;28;19960;-73
2022/06/30 01:20:48;;;;;;;;;;;;;;;-144.99;76.06;52191.28;5030189;28;19914;-73
2022/06/30 01:23:16;;;;;;;;;;;;;;;-144.99;76.31;52223.88;5030649;28;19925;-74
2022/06/30 01:25:43;;;;;;;;;;;;;;;-144.99;76.52;52205.53;5029565;28;20012;-72
2022/06/30 01:28:09;;;;;;;;;;;;;;;-144.99;77.06;52236.13;5028131;28;19913;-72
2022/06/30 01:30:36;;;;;;;;;;;;;;;-144.99;77.57;52223.88;5025668;28;19929;-73
2022/06/30 01:33:02;;;;;;;;;;;;;;;-144.99;78.08;52211.66;5030439;28;19952;-72
2022/06/30 01:35:29;;;;;;;;;;;;;;;-144.99;78.88;52199.44;5034752;28;19935;-74
2022/06/30 01:37:57;;;;;;;;;;;;;;;-144.99;78.82;52234.09;5034617;28;19913;-72
2022/06/30 01:40:25;;;;;;;;;;;;;;;-144.99;79.05;52264.66;5035453;28;19914;-73
2022/06/30 01:42:52;;;;;;;;;;;;;;;-144.99;79.50;52213.69;5033626;28;19913;-73
2022/06/30 01:45:18;;;;;;;;;;;;;;;-144.99;79.91;52227.97;5032041;28;19925;-71
2022/06/30 01:47:45;;;;;;;;;;;;;;;-144.99;79.99;52207.59;5032522;28;19952;-71
2022/06/30 01:50:13;;;;;;;;;;;;;;;-144.99;80.24;52225.94;5017708;28;20350;-71
2022/06/30 01:52:39;;;;;;;;;;;;;;;-144.99;80.60;52211.66;5014846;28;19979;-73
2022/06/30 01:55:07;;;;;;;;;;;;;;;-144.99;80.86;52240.19;5015866;28;19960;-73
2022/06/30 01:57:35;;;;;;;;;;;;;;;-144.99;80.77;52240.19;5015849;28;20040;-71
2022/06/30 02:00:01;;;;;;;;;;;;;;;-144.99;81.59;52248.34;5013034;28;20433;-71
2022/06/30 02:02:28;;;;;;;;;;;;;;;-144.99;81.87;52219.81;5014219;28;19926;-72
2022/06/30 02:04:54;;;;;;;;;;;;;;;-144.99;82.21;52236.13;5028308;28;19993;-70
2022/06/30 02:07:21;;;;;;;;;;;;;;;-144.99;82.40;52207.59;5018551;28;19948;-71
2022/06/30 02:09:50;;;;;;;;;;;;;;;-144.99;82.27;52227.97;5009175;28;19953;-70
2022/06/30 02:15:03;;;;;;;;;;;;;;;-144.99;82.89;52209.63;5007904;28;19931;-69
2022/06/30 02:17:29;;;;;;;;;;;;;;;-144.99;83.08;52219.81;5005780;28;19926;-72
2022/06/30 02:19:56;;;;;;;;;;;;;;;-144.99;83.36;52223.88;5008854;28;20427;-72
2022/06/30 02:22:22;;;;;;;;;;;;;;;-144.99;83.35;52211.66;5009304;28;20331;-71
2022/06/30 02:24:49;;;;;;;;;;;;;;;-144.99;83.50;52223.88;5007171;28;19932;-72
2022/06/30 02:27:15;;;;;;;;;;;;;;;-144.99;83.83;52244.28;5009780;28;19933;-71
2022/06/30 02:29:42;;;;;;;;;;;;;;;-144.99;84.58;52248.34;5008541;28;19934;-71
2022/06/30 02:32:10;;;;;;;;;;;;;;;-144.99;84.98;52215.75;5007151;28;19933;-71
2022/06/30 02:34:37;;;;;;;;;;;;;;;-144.99;85.50;52223.88;5010169;28;20350;-71
2022/06/30 02:37:03;;;;;;;;;;;;;;;-144.99;86.04;52240.19;5009513;28;19925;-71
2022/06/30 02:39:30;;;;;;;;;;;;;;;-144.99;86.37;52232.03;5007403;28;20396;-72
2022/06/30 02:41:56;;;;;;;;;;;;;;;-144.99;86.37;52219.81;5009192;28;20032;-71
2022/06/30 02:44:23;;;;;;;;;;;;;;;-144.99;86.58;52215.75;5009257;28;19968;-73
2022/06/30 02:46:50;;;;;;;;;;;;;;;-144.99;86.88;52215.75;5008071;28;20308;-73
2022/06/30 02:49:18;;;;;;;;;;;;;;;-144.99;87.22;52256.50;5011923;28;19929;-73
2022/06/30 02:51:44;;;;;;;;;;;;;;;-144.99;87.46;52215.75;5009553;28;20415;-73
2022/06/30 02:54:11;;;;;;;;;;;;;;;-144.99;87.58;52227.97;5010231;28;20013;-73
2022/06/30 02:56:38;;;;;;;;;;;;;;;-144.99;87.62;52260.56;5010216;28;19936;-73
2022/06/30 02:59:04;;;;;;;;;;;;;;;-144.99;87.96;52207.59;5003853;28;19934;-73
2022/06/30 03:01:31;;;;;;;;;;;;;;;-144.99;88.16;52244.28;5008686;28;19925;-73
2022/06/30 03:03:58;;;;;;;;;;;;;;;-144.99;88.48;52248.34;5009453;28;20358;-73
2022/06/30 03:06:26;;;;;;;;;;;;;;;-144.99;88.68;52211.66;5009149;28;20354;-72
2022/06/30 03:08:53;;;;;;;;;;;;;;;-144.99;88.99;52254.47;5009282;28;19927;-73
2022/06/30 03:11:19;;;;;;;;;;;;;;;-144.99;89.46;52236.13;5008138;28;20388;-74
2022/06/30 03:13:46;;;;;;;;;;;;;;;-144.99;90.00;52211.66;5011040;28;19926;-73
2022/06/30 03:16:13;;;;;;;;;;;;;;;-144.99;90.70;52256.50;5008208;28;19978;-73
2022/06/30 03:18:39;;;;;;;;;;;;;;;-144.99;91.63;52232.03;5029105;28;20013;-72
2022/06/30 03:21:06;;;;;;;;;;;;;;;-144.99;92.68;52262.63;5021792;28;19994;-72
2022/06/30 03:23:34;;;;;;;;;;;;;;;-144.99;92.94;52240.19;5009399;28;19932;-73
2022/06/30 03:26:01;;;;;;;;;;;;;;;-144.99;93.23;52248.34;5009617;28;19983;-72
2022/06/30 03:28:27;;;;;;;;;;;;;;;-144.99;93.45;52232.03;5007590;28;19951;-72
2022/06/30 03:30:54;;;;;;;;;;;;;;;-144.99;93.28;52219.81;5009173;28;19926;-72
2022/06/30 03:33:20;;;;;;;;;;;;;;;-144.99;93.00;52223.88;5016887;28;20498;-71
2022/06/30 03:35:47;;;;;;;;;;;;;;;-144.99;93.22;52244.28;5013228;28;19925;-72
2022/06/30 03:38:14;;;;;;;;;;;;;;;-144.99;93.61;52240.19;5008889;28;20296;-72
2022/06/30 03:40:42;;;;;;;;;;;;;;;-144.99;93.91;52219.81;5008934;28;20411;-70
2022/06/30 03:43:09;;;;;;;;;;;;;;;-144.99;93.56;52232.03;5031830;23;19925;-74
2022/06/30 03:45:36;;;;;;;;;;;;;;;-144.99;94.31;52244.28;4996428;28;19964;-73
2022/06/30 03:48:03;;;;;;;;;;;;;;;-144.99;94.83;52232.03;4982807;28;20058;-74
2022/06/30 03:50:30;;;;;;;;;;;;;;;-144.99;95.32;52199.44;5022904;28;20339;-74
2022/06/30 03:52:56;;;;;;;;;;;;;;;-144.99;95.18;52244.28;5011458;28;19933;-74
2022/06/30 03:55:23;;;;;;;;;;;;;;;-144.99;95.19;52189.25;5042770;28;20367;-74
2022/06/30 03:57:51;;;;;;;;;;;;;;;-144.99;94.79;52211.66;5019229;28;19926;-74
2022/06/30 04:00:18;;;;;;;;;;;;;;;-144.99;94.53;52215.75;5022948;28;20010;-74
2022/06/30 04:02:45;;;;;;;;;;;;;;;-144.99;95.16;52227.97;4991356;28;19951;-74
2022/06/30 04:05:11;;;;;;;;;;;;;;;-144.99;95.44;52260.56;5042026;28;19950;-74
2022/06/30 04:07:41;;;;;;;;;;;;;;;-144.99;95.47;52223.88;5054490;28;19924;-74
2022/06/30 04:10:08;;;;;;;;;;;;;;;-144.99;95.00;52223.88;4991953;28;20324;-74
2022/06/30 04:12:34;;;;;;;;;;;;;;;-144.99;95.46;52236.13;4992538;28;19926;-73
2022/06/30 04:15:03;;;;;;;;;;;;;;;-144.99;94.95;52207.59;4996593;28;19925;-76
2022/06/30 04:17:33;;;;;;;;;;;;;;;-144.99;94.79;52191.28;4994216;28;19936;-75
2022/06/30 04:19:59;;;;;;;;;;;;;;;-144.99;94.58;52205.53;4994955;28;19989;-75
2022/06/30 04:22:26;;;;;;;;;;;;;;;-144.99;94.44;52191.28;5008954;28;19931;-73
2022/06/30 04:24:52;;;;;;;;;;;;;;;-144.99;93.92;52230.00;5003989;28;19930;-74
2022/06/30 04:27:19;;;;;;;;;;;;;;;-144.99;93.85;52205.53;5013624;28;19971;-72
2022/06/30 04:29:45;;;;;;;;;;;;;;;-144.99;93.58;52236.13;5030993;28;20017;-72
2022/06/30 04:34:58;;;;;;;;;;;;;;;-144.99;93.97;52256.50;5024151;28;19931;-74
2022/06/30 04:37:24;;;;;;;;;;;;;;;-144.99;93.89;52223.88;4984516;28;19925;-74
2022/06/30 04:41:23;;;;;;;;;;;;;;;-144.99;93.56;52256.50;4986609;28;19926;-73
2022/06/30 04:42:36;;;;;;;;;;;;;;;-144.99;93.01;52203.50;4995136;28;20276;-74
2022/06/30 04:45:03;;;;;;;;;;;;;;;-144.99;92.64;52215.75;4987026;28;19926;-74
2022/06/30 04:47:31;;;;;;;;;;;;;;;-144.99;92.44;52195.34;5008336;28;19926;-73
2022/06/30 04:49:58;;;;;;;;;;;;;;;-144.99;91.84;52240.19;5031159;28;19924;-74
2022/06/30 04:52:24;;;;;;;;;;;;;;;-144.99;91.35;52185.16;5036490;28;20395;-73
2022/06/30 04:54:50;;;;;;;;;;;;;;;-144.99;91.05;52183.13;5017262;28;19931;-73
2022/06/30 04:57:17;;;;;;;;;;;;;;;-144.99;90.74;52215.75;5022497;28;19926;-74
2022/06/30 04:59:44;;;;;;;;;;;;;;;-144.99;90.58;52232.03;5042150;28;19924;-74
2022/06/30 05:02:10;;;;;;;;;;;;;;;-144.99;90.33;52201.47;4995181;28;19972;-74
2022/06/30 05:04:38;;;;;;;;;;;;;;;-144.99;90.46;52187.19;5002851;28;19992;-74
2022/06/30 05:07:05;;;;;;;;;;;;;;;-144.99;90.04;52199.44;5059925;28;20139;-77
2022/06/30 05:09:31;;;;;;;;;;;;;;;-144.99;89.30;52191.28;5008829;28;19914;-78
2022/06/30 05:11:58;;;;;;;;;;;;;;;-144.99;88.63;52195.34;5009766;28;19914;-78
2022/06/30 05:14:24;;;;;;;;;;;;;;;-144.99;88.61;52199.44;4996762;28;20012;-77
2022/06/30 05:16:51;;;;;;;;;;;;;;;-144.99;88.41;52195.34;4987856;28;19926;-78
2022/06/30 05:19:17;;;;;;;;;;;;;;;-144.99;88.21;52199.44;5019896;28;19933;-77
2022/06/30 05:21:45;;;;;;;;;;;;;;;-144.99;87.99;52215.75;4341870;28;10000720;-78
2022/06/30 05:26:55;;;;;;;;;;;;;;;-144.99;86.64;52197.41;5010727;28;19941;-78
2022/06/30 05:29:22;;;;;;;;;;;;;;;-144.99;87.02;52199.44;4984871;28;19929;-78
2022/06/30 05:31:49;;;;;;;;;;;;;;;-144.99;86.74;52185.16;4980572;28;20007;-77
2022/06/30 05:34:15;;;;;;;;;;;;;;;-144.99;87.02;52230.00;5060147;28;19929;-78
2022/06/30 05:36:42;;;;;;;;;;;;;;;-144.99;86.74;52215.75;5044904;28;19932;-77
2022/06/30 05:39:09;;;;;;;;;;;;;;;-144.99;86.62;52207.59;4988807;28;20012;-74
2022/06/30 05:41:36;;;;;;;;;;;;;;;-144.99;87.12;52230.00;5010717;28;19935;-73
2022/06/30 05:44:02;;;;;;;;;;;;;;;-144.99;86.83;52189.25;5010282;28;20011;-73
2022/06/30 05:46:29;;;;;;;;;;;;;;;-144.99;86.26;52223.88;5031148;28;19932;-74
2022/06/30 05:48:56;;;;;;;;;;;;;;;-144.99;85.59;52146.44;5004572;28;19943;-72
2022/06/30 05:51:22;;;;;;;;;;;;;;;-144.99;84.73;52183.13;5048709;28;19946;-72
2022/06/30 05:53:49;;;;;;;;;;;;;;;-144.99;84.26;52179.06;4987813;28;19930;-73
2022/06/30 05:56:17;;;;;;;;;;;;;;;-144.99;83.48;52174.97;5016840;28;19963;-73
2022/06/30 05:58:45;;;;;;;;;;;;;;;-144.99;82.71;52174.97;5013364;28;20360;-72
2022/06/30 06:01:11;;;;;;;;;;;;;;;-144.99;81.13;52150.53;5026403;28;19953;-74
2022/06/30 06:03:38;;;;;;;;;;;;;;;-144.99;81.15;52191.28;5014402;28;19989;-74
2022/06/30 06:06:04;;;;;;;;;;;;;;;-144.99;81.05;52162.75;5009757;28;20009;-73
2022/06/30 06:08:31;;;;;;;;;;;;;;;-144.99;80.31;52158.66;4993119;28;19945;-74
2022/06/30 06:10:57;;;;;;;;;;;;;;;-144.99;80.02;52146.44;4990796;28;20354;-74
2022/06/30 06:13:25;;;;;;;;;;;;;;;-144.99;79.21;52103.66;5011950;28;19981;-74
2022/06/30 06:15:52;;;;;;;;;;;;;;;-144.99;79.05;52154.59;5011724;28;19931;-73
2022/06/30 06:18:18;;;;;;;;;;;;;;;-144.99;77.41;52166.81;5027531;28;19937;-73
2022/06/30 06:20:45;;;;;;;;;;;;;;;-144.99;76.47;52146.44;5039147;28;19928;-74
2022/06/30 06:23:11;;;;;;;;;;;;;;;-144.99;75.65;52156.63;4989016;28;20311;-72
2022/06/30 06:25:38;;;;;;;;;;;;;;;-144.99;75.14;52170.91;5000879;28;19928;-74
2022/06/30 06:30:50;;;;;;;;;;;;;;;-144.99;74.93;52156.63;5022218;28;20030;-73
2022/06/30 06:33:16;;;;;;;;;;;;;;;-144.99;73.97;52134.22;5033037;28;19953;-74
2022/06/30 06:35:43;;;;;;;;;;;;;;;-144.99;73.38;52150.53;5027853;28;20002;-74
2022/06/30 06:38:09;;;;;;;;;;;;;;;-144.99;72.25;52187.19;4984318;28;20387;-74
2022/06/30 06:40:36;;;;;;;;;;;;;;;-144.99;71.51;52158.66;5018367;28;20427;-74
2022/06/30 06:43:02;;;;;;;;;;;;;;;-144.99;71.35;52134.22;5034471;28;19933;-74
2022/06/30 06:45:29;;;;;;;;;;;;;;;-144.99;70.83;52142.38;5011629;28;20456;-75
2022/06/30 06:47:56;;;;;;;;;;;;;;;-144.99;71.02;52126.06;5012491;28;19929;-74
2022/06/30 06:50:23;;;;;;;;;;;;;;;-144.99;70.73;52146.44;5016640;28;19969;-74
2022/06/30 06:52:49;;;;;;;;;;;;;;;-144.99;70.11;52146.44;4986788;28;19937;-74
2022/06/30 06:55:17;;;;;;;;;;;;;;;-144.99;69.59;52174.97;5024996;28;19930;-73
2022/06/30 06:57:44;;;;;;;;;;;;;;;-144.99;69.05;52162.75;5000546;28;20444;-74
2022/06/30 07:00:11;;;;;;;;;;;;;;;-144.99;68.61;52130.13;4984486;28;19984;-72
2022/06/30 07:02:38;;;;;;;;;;;;;;;-144.99;67.90;52109.75;4992711;28;19926;-73
2022/06/30 07:05:07;;;;;;;;;;;;;;;-144.99;67.51;52138.28;5031976;28;19930;-74
2022/06/30 07:07:33;;;;;;;;;;;;;;;-144.99;66.67;52121.97;4992079;28;19926;-75
2022/06/30 07:10:00;;;;;;;;;;;;;;;-144.99;66.32;52103.66;4998373;28;19926;-75
2022/06/30 07:12:26;;;;;;;;;;;;;;;-144.99;64.86;52154.59;4673424;28;10000122;-75
2022/06/30 07:14:53;;;;;;;;;;;;;;;-144.99;64.57;52113.84;4985755;28;20445;-75
2022/06/30 07:17:19;;;;;;;;;;;;;;;-144.99;64.69;52121.97;5025637;28;19983;-75
2022/06/30 07:19:46;;;;;;;;;;;;;;;-144.99;65.03;52081.22;5022018;28;19973;-74
2022/06/30 07:22:16;;;;;;;;;;;;;;;-144.99;64.58;52109.75;5038845;28;20369;-75
2022/06/30 07:24:43;;;;;;;;;;;;;;;-144.99;64.03;52109.75;5006724;28;19992;-75
2022/06/30 07:27:10;;;;;;;;;;;;;;;-144.99;62.88;52101.59;5015628;28;19934;-75
2022/06/30 07:29:36;;;;;;;;;;;;;;;-144.99;61.90;52130.13;4987350;28;19961;-73
2022/06/30 07:32:03;;;;;;;;;;;;;;;-144.99;61.93;52107.72;4984707;28;19930;-75
2022/06/30 07:34:29;;;;;;;;;;;;;;;-144.99;61.21;52101.59;5026476;28;19924;-75
2022/06/30 07:36:56;;;;;;;;;;;;;;;-144.99;61.40;52121.97;5010706;28;19941;-75
2022/06/30 07:39:24;;;;;;;;;;;;;;;-144.99;60.93;52138.28;5041528;28;20708;-74
2022/06/30 07:41:50;;;;;;;;;;;;;;;-144.99;60.62;52089.38;5025472;28;19930;-76
2022/06/30 07:44:17;;;;;;;;;;;;;;;-144.99;60.68;52101.59;4986373;28;19937;-75
2022/06/30 07:46:43;;;;;;;;;;;;;;;-144.99;59.96;52052.69;5034124;28;19966;-75
2022/06/30 07:49:10;;;;;;;;;;;;;;;-144.99;59.92;52083.25;5022667;28;19930;-75
2022/06/30 07:51:36;;;;;;;;;;;;;;;-144.99;59.69;52093.44;5052119;28;20126;-75
2022/06/30 07:54:03;;;;;;;;;;;;;;;-144.99;59.21;52109.75;5033113;28;19929;-74
2022/06/30 07:56:31;;;;;;;;;;;;;;;-144.99;58.81;52101.59;5043758;28;19953;-75
2022/06/30 07:58:58;;;;;;;;;;;;;;;-144.99;58.59;52097.53;4990407;28;20405;-76
2022/06/30 08:01:25;;;;;;;;;;;;;;;-144.99;58.08;52081.22;5014556;28;19938;-74
2022/06/30 08:03:51;;;;;;;;;;;;;;;-144.99;58.02;52089.38;5044115;28;19924;-75
2022/06/30 08:06:18;;;;;;;;;;;;;;;-144.99;58.14;52077.16;5006002;28;19979;-74
2022/06/30 08:08:44;;;;;;;;;;;;;;;-144.99;58.16;52081.22;4983882;28;19934;-75
2022/06/30 08:11:11;;;;;;;;;;;;;;;-144.99;57.67;52109.75;4987430;28;19934;-74
2022/06/30 08:13:39;;;;;;;;;;;;;;;-144.99;57.67;52073.06;5018272;28;20311;-74
2022/06/30 08:16:05;;;;;;;;;;;;;;;-144.99;57.15;52069.00;5019219;28;19987;-75
2022/06/30 08:18:32;;;;;;;;;;;;;;;-144.99;58.07;52119.94;5014842;28;20378;-75
2022/06/30 08:20:59;;;;;;;;;;;;;;;-144.99;57.18;52069.00;5016982;28;20110;-77
2022/06/30 08:23:25;;;;;;;;;;;;;;;-144.99;56.80;52073.06;5003148;28;20346;-74
2022/06/30 08:25:52;;;;;;;;;;;;;;;-144.99;56.92;52089.38;5027414;28;19955;-73
2022/06/30 08:28:19;;;;;;;;;;;;;;;-144.99;57.56;52060.84;5036788;28;20457;-73
2022/06/30 08:30:48;;;;;;;50.47;45.97;;;;;;;-144.99;57.67;52089.38;5012220;28;24497;-74
2022/06/30 08:33:15;;;;;;;;;;;;;;;-144.99;56.95;52054.72;5052630;28;20615;-74
2022/06/30 08:35:41;;;;;;;;;;;;;;;-144.99;55.84;52089.38;5006566;28;20003;-73
2022/06/30 08:38:08;;;;;;;;;;;;;;;-144.99;55.29;52052.69;4989340;28;19950;-76
2022/06/30 08:43:19;;;;;;;;;;;;;;;-144.99;53.49;52077.16;5018326;28;20473;-75
2022/06/30 08:45:48;;;;;;;;;;;;;;;-144.99;52.73;52069.00;5037320;28;19957;-75
2022/06/30 08:48:15;;;;;;;;;;;;;;;-144.99;52.19;52054.72;5010868;28;20467;-75
2022/06/30 08:50:43;;;;;;;;;;;;;;;-144.99;51.88;52093.44;5003339;28;20174;-75
2022/06/30 08:53:10;;;;;;;;;;;;;;;-144.99;51.33;52026.19;4988665;28;19933;-75
2022/06/30 08:55:38;;;;;;;;;;;;;;;-144.99;50.80;52056.78;5037888;28;20360;-75
2022/06/30 08:58:05;;;;;;;;;;;;;;;-144.99;49.26;52046.56;5004447;28;19975;-75
2022/06/30 09:00:32;;;;;;;;;;;;;;;-144.99;49.40;52024.16;4986949;28;19948;-77
2022/06/30 09:03:01;;;;;;;;;;;;;;;-144.99;48.85;52060.84;5027541;28;20319;-75
2022/06/30 09:05:28;;;;;;;;;;;;;;;-144.99;47.69;52028.22;4984033;28;19929;-76
2022/06/30 09:07:54;;;;;;;;;;;;;;;-144.99;48.40;52048.63;4983827;28;19983;-76
2022/06/30 09:10:22;;;;;;;;;;;;;;;-144.99;48.78;52042.50;5019493;28;19928;-76
2022/06/30 09:12:58;;;;;;;;;;;;;;;-144.99;48.60;52044.53;5036397;28;19920;-76
2022/06/30 09:15:25;;;;;;;;;;;;;;;-144.99;46.97;52003.78;5021826;28;19977;-75
2022/06/30 09:17:53;;;;;;;;;;;;;;;-144.99;46.27;52032.31;5042952;28;20526;-76
2022/06/30 09:20:32;;;;;;;;;;;;;;;-144.99;46.02;52046.56;4990880;28;19928;-76
2022/06/30 09:22:59;;;;;;;;;;;;;;;-144.99;45.75;52016.00;5006242;28;20292;-76
2022/06/30 09:25:30;;;;;;;;;;;;;;;-144.99;45.61;52003.78;5022598;28;19930;-76
2022/06/30 09:27:56;;;;;;;;;;;;;;;-144.99;45.12;52007.84;4995109;28;19933;-75
2022/06/30 09:30:24;;;;;;;;;;;;;;;-144.99;45.28;52003.78;5033917;28;19959;-74
2022/06/30 09:32:52;;;;;;;;;;;;;;;-144.99;44.44;52044.53;4982881;28;19994;-75
2022/06/30 09:35:19;;;;;;;;;;;;;;;-144.99;44.57;52060.84;5005258;28;19922;-75
2022/06/30 09:37:57;;;;;;;;;;;;;;;-144.99;44.52;52016.00;5015025;28;20380;-75
2022/06/30 09:40:28;;;;;;;;;;;;;;;-144.99;44.74;52044.53;5024394;28;20530;-75
2022/06/30 09:42:55;;;;;;;;;;;;;;;-144.99;44.59;52036.38;5039072;28;19994;-76
2022/06/30 09:45:33;;;;;;;;;;;;;;;-144.99;44.11;52022.13;5008222;28;19928;-75
2022/06/30 09:48:00;;;;;;;;;;;;;;;-144.99;43.68;52016.00;5008064;28;19925;-75
2022/06/30 09:50:26;;;;;;;;;;;;;;;-144.99;43.13;51999.69;4984174;28;20377;-74
2022/06/30 09:53:08;;;;;;;;;;;;;;;-144.99;43.52;52032.31;4988728;28;19979;-73
2022/06/30 09:55:42;;;;;;;;;;;;;;;-144.99;43.71;52028.22;5034628;28;20402;-75
2022/06/30 09:58:09;;;;;;;;;;;;;;;-144.99;43.08;52028.22;5014007;28;20025;-75
2022/06/30 10:00:53;;;;;;;;;;;;;;;-144.99;42.37;51983.41;5054390;28;19993;-74
2022/06/30 10:03:20;;;;;;;;;;;;;;;-144.99;41.98;51991.56;4993101;28;20362;-74
2022/06/30 10:05:48;;;;;;;;;;;;;;;-144.99;42.24;52024.16;4987759;28;19930;-74
2022/06/30 10:08:17;;;;;;;;;;;;;;;-144.99;41.71;52007.84;5014219;28;20069;-74
2022/06/30 10:10:44;;;;;;;;;;;;;;;-144.99;41.49;51983.41;4986809;28;20415;-74
2022/06/30 10:13:14;;;;;;;;;;;;;;;-144.99;41.71;51946.72;5011573;28;19922;-74
2022/06/30 10:15:40;;;;;;;;;;;;;;;-144.99;41.33;51948.75;5019251;28;19963;-74
2022/06/30 10:18:08;;;;;;;;;;;;;;;-144.99;41.12;51958.94;5017089;28;19964;-75
2022/06/30 10:20:38;;;;;;;;;;;;;;;-144.99;40.51;51938.56;4981563;28;19925;-75
2022/06/30 10:23:05;;;;;;;;;;;;;;;-144.99;39.78;51950.78;5010354;28;19933;-74
2022/06/30 10:25:33;;;;;;;;;;;;;;;-144.99;39.18;51918.19;5048831;28;20335;-72
2022/06/30 10:28:00;;;;;;;;;;;;;;;-144.99;38.97;51932.44;4995366;28;19953;-74
2022/06/30 10:30:29;;;;;;;;;;;;;;;-144.99;39.01;51893.72;5014386;28;19924;-75
2022/06/30 10:33:00;;;;;;;;;;;;;;;-144.99;37.82;51922.25;5008857;28;20418;-75
2022/06/30 10:35:29;;;;;;;;;;;;;;;-144.99;38.40;51946.72;5012948;28;19925;-75
2022/06/30 10:37:59;;;;;;;;;;;;;;;-144.99;37.57;51934.50;5036071;28;19925;-74
2022/06/30 10:40:45;;;;;;;;;;;;;;;-144.99;37.35;51928.38;5020734;28;19932;-75
2022/06/30 10:43:13;;;;;;;;;;;;;;;-144.99;37.75;51914.09;5026062;28;19926;-73
2022/06/30 10:45:57;;;;;;;;;;;;;;;-144.99;37.16;51914.09;5042215;28;19930;-76
2022/06/30 10:48:24;;;;;;;;;;;;;;;-144.99;37.36;51938.56;5001567;28;19929;-74
2022/06/30 10:50:52;;;;;;;;;;;;;;;-144.99;37.23;51938.56;4998149;28;19930;-72
2022/06/30 10:53:23;;;;;;;;;;;;;;;-144.99;36.89;51942.63;5009648;28;19928;-75
2022/06/30 10:55:56;;;;;;;;;;;;;;;-144.99;37.00;51944.69;5039529;28;19928;-74
2022/06/30 10:58:22;;;;;;;;;;;;;;;-144.99;36.48;51922.25;5007043;28;19929;-74
2022/06/30 11:01:07;;;;;;;;;;;;;;;-144.99;36.17;51914.09;4987712;28;20222;-75
2022/06/30 11:03:58;;;;;;;;;;;;;;;-144.99;36.10;51903.91;4985643;28;20386;-74
2022/06/30 11:06:27;;;;;;;;;;;;;;;-144.99;35.97;51922.25;5003292;28;20018;-74
2022/06/30 11:08:58;;;;;;;;;;;;;;;-144.99;35.98;51938.56;5022763;28;19925;-74
2022/06/30 11:11:45;;;;;;;;;;;;;;;-144.99;35.60;51926.34;4994500;28;19965;-74
2022/06/30 11:14:24;;;;;;;;;;;;;;;-144.99;35.25;51893.72;5004203;28;20269;-73
2022/06/30 11:16:51;;;;;;;;;;;;;;;-144.99;35.86;51865.19;5043986;28;20252;-75
2022/06/30 11:19:21;;;;;;;;;;;;;;;-144.99;35.37;51914.09;5046616;28;19973;-74
2022/06/30 11:21:47;;;;;;;;;;;;;;;-144.99;35.53;51910.03;5010807;28;20167;-75
2022/06/30 11:24:15;;;;;;;;;;;;;;;-144.99;35.82;51889.66;5004449;28;19922;-72
2022/06/30 11:29:27;;;;;;;;;;;;;;;-144.99;35.36;51855.00;5034795;28;19930;-75
2022/06/30 11:31:58;;;;;;;;;;;;;;;-144.99;35.20;51867.22;4984657;28;19994;-74
2022/06/30 11:34:25;;;;;;;;;;;;;;;-144.99;34.71;51869.28;5020748;28;19966;-74
2022/06/30 11:36:51;;;;;;;;;;;;;;;-144.99;35.11;51910.03;5039045;28;19931;-73
2022/06/30 11:39:19;;;;;;;;;;;;;;;-144.99;35.46;51889.66;5031600;28;19925;-72
2022/06/30 11:41:59;;;;;;;;;;;;;;;-144.99;35.68;51912.06;4984877;28;19975;-72
2022/06/30 11:44:27;;;;;;;;;;;;;;;-144.99;35.67;51877.44;4994345;28;19926;-74
2022/06/30 11:46:59;;;;;;;;;;;;;;;-144.99;35.58;51859.09;5031213;28;19921;-75
2022/06/30 11:49:28;;;;;;;;;;;;;;;-144.99;35.00;51850.94;5023853;28;20119;-75
2022/06/30 11:51:55;;;;;;;;;;;;;;;-144.99;35.01;51865.19;5033251;28;19922;-75
2022/06/30 11:54:24;;;;;;;;;;;;;;;-144.99;34.56;51861.13;4989431;28;19940;-74
2022/06/30 11:56:51;;;;;;;;;;;;;;;-144.99;34.47;51848.91;4987830;28;19926;-75
2022/06/30 11:59:18;;;;;;;;;;;;;;;-144.99;33.99;51852.97;5000455;28;19943;-75
2022/06/30 12:01:59;;;;;;;;;;;;;;;-144.99;34.33;51895.75;5019204;28;19926;-72
2022/06/30 12:04:27;;;;;;;;;;;;;;;-144.99;35.44;51914.09;5007912;28;20488;-75
2022/06/30 12:06:54;;;;;;;;;;;;;;;-144.99;35.88;51905.97;5053035;28;19925;-74
2022/06/30 12:09:20;;;;;;;;;;;;;;;-144.99;36.52;51950.78;5010579;28;19933;-75
2022/06/30 12:11:47;;;;;;;;;;;;;;;-144.99;36.61;51963.03;4987790;28;19922;-75
2022/06/30 12:14:15;;;;;;;;;;;;;;;-144.99;35.77;51946.72;5010558;28;19922;-76
2022/06/30 12:16:42;;;;;;;;;;;;;;;-144.99;36.07;51891.69;5029230;28;20061;-77
2022/06/30 12:19:08;;;;;;;;;;;;;;;-144.99;36.77;51901.88;4994861;28;19925;-76
2022/06/30 12:21:36;;;;;;;;;;;;;;;-144.99;36.30;51942.63;5024989;28;19924;-74
2022/06/30 12:24:03;;;;;;;;;;;;;;;-144.99;36.38;51946.72;4992556;28;19925;-75
2022/06/30 12:26:30;;;;;;;;;;;;;;;-144.99;35.75;51910.03;5022867;28;19924;-73
2022/06/30 12:28:56;;;;;;;;;;;;;;;-144.99;35.96;51930.41;5048601;28;19930;-75
2022/06/30 12:31:23;;;;;;;;;;;;;;;-144.99;35.47;51877.44;4993030;28;20357;-74
2022/06/30 12:33:51;;;;;;;;;;;;;;;-144.99;35.42;51885.56;4996014;28;19921;-75
2022/06/30 12:36:17;;;;;;;;;;;;;;;-144.99;35.38;51897.81;5015895;28;19929;-76
2022/06/30 12:38:45;;;;;;;;;;;;;;;-144.99;35.98;51934.50;4987655;28;19983;-76
2022/06/30 12:41:12;;;;;;;;;;;;;;;-144.99;35.87;51897.81;4987880;28;19926;-76
2022/06/30 12:43:45;;;;;;;;;;;;;;;-144.99;35.17;51848.91;4986562;28;20233;-74
2022/06/30 12:46:12;;;;;;;;;;;;;;;-144.99;36.90;51926.34;4985310;28;19966;-72
2022/06/30 12:48:42;;;;;;;;;;;;;;;-144.99;37.07;51944.69;5047631;28;22061;-76